Terminal Aerodrome Forecast
Issued by NWS

Home | Current Version | Previous Version | Graphics & Text | Print | Product List | Glossary On
Versions: 1 2 3 4 5 6 7 8 9 10 11 12 13 14 15 16 17
000
FTUS43 KICT 170500
TAFHUT
TAF
KHUT 170522Z 1706/1806 15008KT P6SM SKC
     FM170800 17008KT 5SM BR SCT011 BKN020
     FM171500 20009KT P6SM SCT040
      TEMPO 1715/1718 BKN025
     FM172300 15007KT P6SM SCT035=

USA.gov is the U.S. government's official web portal to all federal, state and local government web resources and services.